Time;durP1;ratioP1;P1;durP2;ratioP2;P2;SDS_P1;SDS_P2;PMS_P1;PMS_P2;Temp;Humidity;BMP_temperature;BMP_pressure;BME280_temperature;BME280_humidity;BME280_pressure;Samples;Min_cycle;Max_cycle;Signal;HPM_P1;HPM_P2
2022/01/13 00:01:22;;;;;;;30.03;17.17;;;2.10;99.90;;;2.75;100.00;-19820.34;5014787;28;20242;-67
2022/01/13 00:03:50;;;;;;;24.27;16.17;;;2.10;99.90;;;2.69;100.00;-19818.28;5014838;28;20270;-67
2022/01/13 00:06:18;;;;;;;24.30;17.10;;;2.10;99.90;;;2.77;100.00;-19821.19;5014759;28;20272;-67
2022/01/13 00:08:46;;;;;;;26.30;17.40;;;2.10;99.90;;;2.63;100.00;-19816.25;5015166;28;20237;-67
2022/01/13 00:11:14;;;;;;;26.17;17.00;;;2.10;99.90;;;2.50;100.00;-19811.97;5014993;28;20199;-67
2022/01/13 00:13:48;;;;;;;23.97;17.70;;;2.00;99.90;;;2.64;100.00;-19816.75;5014943;28;20244;-67
2022/01/13 00:16:37;;;;;;;26.53;17.70;;;2.00;99.90;;;2.59;100.00;-19814.88;5014493;28;20623;-67
2022/01/13 00:19:19;;;;;;;26.27;16.13;;;2.00;99.90;;;2.55;100.00;-19813.50;5014829;28;20195;-67
2022/01/13 00:21:55;;;;;;;27.03;17.53;;;1.90;99.90;;;2.51;100.00;-19812.31;5013466;28;20286;-67
2022/01/13 00:24:24;;;;;;;25.13;16.77;;;1.90;99.90;;;2.61;100.00;-19815.56;5014755;28;20187;-67
2022/01/13 00:26:54;;;;;;;24.20;16.50;;;1.90;99.90;;;2.53;100.00;-19812.81;5014523;28;20282;-67
2022/01/13 00:29:30;;;;;;;26.83;16.47;;;1.90;99.90;;;2.67;100.00;-19817.59;5014325;28;20183;-68
2022/01/13 00:32:00;;;;;;;25.40;16.17;;;1.90;99.90;;;2.36;100.00;-19807.34;5014561;28;20253;-68
2022/01/13 00:34:28;;;;;;;26.43;16.33;;;1.90;99.90;;;2.38;100.00;-19808.03;5014064;28;20205;-68
2022/01/13 00:36:58;;;;;;;23.40;16.27;;;1.80;99.90;;;2.44;100.00;-19810.09;5014095;28;20317;-67
2022/01/13 00:39:26;;;;;;;26.27;17.63;;;1.80;99.90;;;2.41;100.00;-19809.06;5014404;28;20222;-67
2022/01/13 00:41:54;;;;;;;23.57;16.27;;;1.80;99.90;;;2.41;100.00;-19809.06;5014471;28;20241;-67
2022/01/13 00:44:22;;;;;;;25.40;15.83;;;1.80;99.90;;;2.47;100.00;-19810.94;5014537;28;20266;-68
2022/01/13 00:46:57;;;;;;;21.63;14.97;;;1.80;99.90;;;2.41;100.00;-19809.06;5014538;28;20202;-68
2022/01/13 00:49:27;;;;;;;27.23;15.93;;;1.80;99.90;;;2.30;100.00;-19805.28;5014651;28;20187;-68
2022/01/13 00:51:56;;;;;;;22.27;14.30;;;1.80;99.90;;;2.42;100.00;-19809.22;5013961;28;20279;-67
2022/01/13 00:54:24;;;;;;;21.77;15.23;;;1.80;99.90;;;2.63;100.00;-19816.41;5014150;28;20290;-68
2022/01/13 00:56:52;;;;;;;23.47;15.23;;;1.80;99.90;;;2.60;100.00;-19815.22;5014084;28;20242;-68
2022/01/13 00:59:21;;;;;;;27.33;15.23;;;1.90;99.90;;;2.57;100.00;-19814.38;5013782;28;20560;-68
2022/01/13 01:01:52;;;;;;;23.97;14.53;;;1.90;99.90;;;2.34;100.00;-19806.66;5014202;28;20206;-68
2022/01/13 01:04:21;;;;;;;23.80;14.37;;;1.80;99.90;;;2.43;100.00;-19809.75;5014088;28;20237;-68
2022/01/13 01:06:51;;;;;;;22.57;14.67;;;1.80;99.90;;;2.39;100.00;-19808.38;5014072;28;20295;-67
2022/01/13 01:09:28;;;;;;;24.03;15.17;;;1.80;99.90;;;2.38;100.00;-19808.03;5014206;28;20280;-67
2022/01/13 01:11:56;;;;;;;24.37;15.30;;;1.80;99.90;;;2.36;100.00;-19807.19;5013937;28;20237;-67
2022/01/13 01:14:25;;;;;;;31.90;19.37;;;1.80;99.90;;;2.42;100.00;-19809.22;5013868;28;20345;-67
2022/01/13 01:16:53;;;;;;;26.17;16.00;;;1.80;99.90;;;2.36;100.00;-19807.34;5014020;28;20257;-67
2022/01/13 01:19:27;;;;;;;23.17;15.40;;;1.80;99.90;;;2.50;100.00;-19811.97;5014027;28;20210;-67
2022/01/13 01:25:07;;;;;;;22.97;15.17;;;1.80;99.90;;;2.49;100.00;-19811.63;5013332;28;20203;-67
2022/01/13 01:27:39;;;;;;;29.17;16.33;;;1.80;99.90;;;2.47;100.00;-19810.94;5013561;28;20551;-68
2022/01/13 01:30:14;;;;;;;25.50;17.10;;;1.80;99.90;;;2.34;100.00;-19806.66;5013127;28;20266;-68
2022/01/13 01:32:43;;;;;;;29.43;17.13;;;1.80;99.90;;;2.48;100.00;-19811.28;5013100;28;20226;-68
2022/01/13 01:35:15;;;;;;;23.50;15.90;;;1.80;99.90;;;2.43;100.00;-19809.75;5013197;28;20238;-68
2022/01/13 01:37:46;;;;;;;25.00;16.20;;;1.80;99.90;;;2.37;100.00;-19807.53;5013550;28;20242;-67
2022/01/13 01:40:15;;;;;;;24.13;15.67;;;1.80;99.90;;;2.53;100.00;-19813.00;5013227;28;20649;-69
2022/01/13 01:42:45;;;;;;;23.80;15.63;;;1.80;99.90;;;2.67;100.00;-19817.59;5013291;28;20200;-67
2022/01/13 01:45:15;;;;;;;27.60;15.90;;;1.90;99.90;;;2.59;100.00;-19814.88;5013288;28;20234;-67
2022/01/13 01:47:44;;;;;;;23.40;15.90;;;1.90;99.90;;;2.52;100.00;-19812.66;5013272;28;20234;-67
2022/01/13 01:50:18;;;;;;;25.30;15.97;;;1.90;99.90;;;2.50;100.00;-19811.97;5012887;28;20207;-67
2022/01/13 01:52:50;;;;;;;28.00;18.17;;;1.90;99.90;;;2.72;100.00;-19819.50;5011958;28;20613;-67
2022/01/13 01:55:20;;;;;;;24.53;16.17;;;1.90;99.90;;;2.66;100.00;-19817.25;5011932;28;20309;-68
2022/01/13 01:57:51;;;;;;;22.07;14.37;;;1.90;99.90;;;2.71;100.00;-19818.97;5012560;28;20258;-68
2022/01/13 02:00:24;;;;;;;23.47;14.30;;;2.00;99.90;;;2.82;100.00;-19822.72;5013080;28;20238;-68
2022/01/13 02:02:55;;;;;;;22.50;14.27;;;2.10;99.90;;;2.87;100.00;-19824.63;5012940;28;20191;-67
2022/01/13 02:05:24;;;;;;;21.10;14.93;;;2.10;99.90;;;3.00;100.00;-19828.88;5012642;28;20183;-67
2022/01/13 02:07:53;;;;;;;20.80;14.07;;;2.20;99.90;;;2.94;100.00;-19826.84;5012319;28;20210;-68
2022/01/13 02:10:21;;;;;;;23.60;14.70;;;2.20;99.90;;;2.78;100.00;-19821.38;5012384;28;20242;-66
2022/01/13 02:12:53;;;;;;;23.00;15.10;;;2.20;99.90;;;2.73;100.00;-19819.81;5012814;28;20654;-66
2022/01/13 02:15:33;;;;;;;23.17;14.60;;;2.20;99.90;;;2.76;100.00;-19820.69;5012511;28;20218;-67
2022/01/13 02:18:07;;;;;;;24.13;15.80;;;2.10;99.90;;;2.66;100.00;-19817.44;5012694;28;20282;-67
2022/01/13 02:20:50;;;;;;;24.07;16.40;;;2.10;99.90;;;2.74;100.00;-19820.16;5012580;28;20261;-67
2022/01/13 02:23:37;;;;;;;21.87;15.00;;;2.10;99.90;;;2.73;100.00;-19819.81;5012490;28;20216;-67
2022/01/13 02:26:09;;;;;;;22.57;15.50;;;2.10;99.90;;;2.72;100.00;-19819.31;5012362;28;20252;-67
2022/01/13 02:28:38;;;;;;;22.23;16.37;;;2.00;99.90;;;2.77;100.00;-19821.19;5012540;28;20492;-67
2022/01/13 02:31:07;;;;;;;22.87;15.37;;;2.10;99.90;;;2.83;100.00;-19823.25;5012428;28;20662;-67
2022/01/13 02:33:35;;;;;;;25.63;16.87;;;2.10;99.90;;;2.96;100.00;-19827.69;5011926;28;20195;-66
2022/01/13 02:36:06;;;;;;;23.07;15.67;;;2.20;99.90;;;2.95;100.00;-19827.19;5012129;28;20203;-66
2022/01/13 02:38:35;;;;;;;24.83;14.73;;;2.20;99.90;;;2.87;100.00;-19824.63;5012345;28;20214;-66
2022/01/13 02:41:04;;;;;;;25.93;15.30;;;2.20;99.90;;;2.85;100.00;-19823.75;5011818;28;20234;-67
2022/01/13 02:43:33;;;;;;;23.67;15.70;;;2.20;99.90;;;2.89;100.00;-19825.31;5011791;28;20203;-68
2022/01/13 02:46:18;;;;;;;24.10;15.33;;;2.20;99.90;;;3.03;100.00;-19829.91;5011506;28;20234;-67
2022/01/13 02:48:48;;;;;;;22.43;15.67;;;2.20;99.90;;;3.07;100.00;-19831.44;5012062;28;20210;-67
2022/01/13 02:51:18;;;;;;;26.87;15.70;;;2.30;99.90;;;3.10;100.00;-19832.31;5012230;28;20304;-67
2022/01/13 02:53:47;;;;;;;22.40;14.67;;;2.30;99.90;;;3.04;100.00;-19830.25;5011853;28;20558;-68
2022/01/13 02:56:15;;;;;;;24.67;15.30;;;2.30;99.90;;;2.95;100.00;-19827.19;5011479;28;20286;-66
2022/01/13 02:58:45;;;;;;;24.80;16.63;;;2.20;99.90;;;3.04;100.00;-19830.44;5012035;28;20803;-67
2022/01/13 03:01:14;;;;;;;23.30;15.80;;;2.20;99.90;;;2.86;100.00;-19824.09;5012051;28;20187;-67
2022/01/13 03:03:44;;;;;;;22.80;14.73;;;2.10;99.90;;;2.78;100.00;-19821.38;5011550;28;20199;-66
2022/01/13 03:06:16;;;;;;;24.97;15.60;;;2.10;99.90;;;2.89;100.00;-19825.31;5011795;28;20308;-67
2022/01/13 03:08:48;;;;;;;23.97;15.10;;;2.10;99.90;;;2.84;100.00;-19823.41;5011665;28;20611;-67
2022/01/13 03:11:17;;;;;;;25.03;15.97;;;2.10;99.90;;;2.65;100.00;-19816.91;5011624;28;20193;-68
2022/01/13 03:13:45;;;;;;;25.13;15.53;;;2.10;99.90;;;2.83;100.00;-19823.06;5011788;28;20301;-67
2022/01/13 03:16:16;;;;;;;24.03;15.13;;;2.10;99.90;;;2.86;100.00;-19824.09;5011480;28;20789;-67
2022/01/13 03:18:45;;;;;;;26.47;15.63;;;2.10;99.90;;;2.61;100.00;-19815.56;5012075;28;20214;-67
2022/01/13 03:21:13;;;;;;;26.23;16.47;;;2.00;99.90;;;2.81;100.00;-19822.41;5012191;28;20228;-68
2022/01/13 03:23:42;;;;;;;28.20;16.77;;;2.00;99.90;;;2.63;100.00;-19816.41;5013912;28;20294;-69
2022/01/13 03:26:12;;;;;;;24.77;15.10;;;2.00;99.90;;;2.61;100.00;-19815.72;5011706;28;20232;-67
2022/01/13 03:28:50;;;;;;;26.20;16.70;;;2.00;99.90;;;2.56;100.00;-19813.84;5011807;28;20203;-66
2022/01/13 03:31:21;;;;;;;24.50;15.63;;;1.90;99.90;;;2.43;100.00;-19809.75;5011817;28;20243;-67
2022/01/13 03:33:50;;;;;;;30.00;16.43;;;1.80;99.90;;;2.43;100.00;-19809.56;5011857;28;20199;-67
2022/01/13 03:36:19;;;;;;;23.77;15.23;;;1.90;99.90;;;2.63;100.00;-19816.25;5011690;28;20325;-66
2022/01/13 03:38:48;;;;;;;25.40;15.03;;;1.90;99.90;;;2.59;100.00;-19814.88;5011414;28;20257;-66
2022/01/13 03:41:20;;;;;;;24.80;14.63;;;1.90;99.90;;;2.57;100.00;-19814.19;5011581;28;20250;-66
2022/01/13 03:43:51;;;;;;;26.37;14.90;;;1.90;99.90;;;2.70;100.00;-19818.63;5011797;28;20542;-66
2022/01/13 03:46:19;;;;;;;25.13;14.43;;;1.90;99.90;;;2.51;100.00;-19812.31;5011611;28;20247;-66
2022/01/13 03:48:48;;;;;;;26.17;14.37;;;1.90;99.90;;;2.62;100.00;-19816.06;5011391;28;20209;-67
2022/01/13 03:51:16;;;;;;;24.33;14.80;;;1.80;99.90;;;2.58;100.00;-19814.69;5010621;28;20648;-66
2022/01/13 03:55:15;;;;;;;25.13;14.27;;;1.80;99.90;;;2.49;100.00;-19811.78;5011140;28;20203;-67
2022/01/13 03:58:51;;;;;;;24.53;14.33;;;1.80;99.90;;;2.51;100.00;-19812.31;5013465;28;20692;-67
2022/01/13 04:02:02;;;;;;;23.53;14.17;;;1.80;99.90;;;2.74;100.00;-19820.00;4988255;28;20679;-67
2022/01/13 04:04:33;;;;;;;22.70;14.17;;;1.90;99.90;;;2.54;100.00;-19813.16;5015314;28;20179;-67
2022/01/13 04:07:18;;;;;;;23.00;13.57;;;1.90;99.90;;;2.57;100.00;-19814.19;5015011;28;20202;-67
2022/01/13 04:11:00;;;;;;;23.47;13.63;;;1.80;99.90;;;2.59;100.00;-19815.03;5015587;28;20224;-67
2022/01/13 04:13:45;;;;;;;25.93;14.33;;;1.90;99.90;;;2.43;100.00;-19809.75;5014929;28;20187;-67
2022/01/13 04:16:15;;;;;;;23.23;13.17;;;1.90;99.90;;;2.54;100.00;-19813.34;5015202;28;20219;-67
2022/01/13 04:18:45;;;;;;;20.60;14.30;;;1.90;99.90;;;2.62;100.00;-19815.91;5014693;28;20743;-67
2022/01/13 04:21:14;;;;;;;20.40;14.40;;;1.90;99.90;;;2.63;100.00;-19816.25;5014860;28;20301;-67
2022/01/13 04:23:42;;;;;;;22.00;14.00;;;1.90;99.90;;;2.75;100.00;-19820.34;5014946;28;20202;-67
2022/01/13 04:26:10;;;;;;;24.03;14.90;;;2.10;99.90;;;3.04;100.00;-19830.25;5014962;28;20203;-66
2022/01/13 04:28:41;;;;;;;24.63;13.67;;;2.10;99.90;;;3.13;100.00;-19833.34;5014903;28;20301;-67
2022/01/13 04:31:09;;;;;;;20.73;13.27;;;2.20;99.90;;;3.07;100.00;-19831.44;5014637;28;20616;-66
2022/01/13 04:33:38;;;;;;;23.67;13.87;;;2.20;99.90;;;3.20;100.00;-19835.91;5014497;28;20869;-67
2022/01/13 04:36:09;;;;;;;18.87;13.33;;;2.30;99.90;;;3.18;100.00;-19835.03;5014591;28;20230;-67
2022/01/13 04:38:37;;;;;;;18.97;12.60;;;2.30;99.90;;;3.22;100.00;-19836.59;5014318;28;20186;-68
2022/01/13 04:41:05;;;;;;;19.27;12.53;;;2.30;99.90;;;3.37;100.00;-19841.72;5014467;28;20214;-67
2022/01/13 04:43:34;;;;;;;20.60;12.17;;;2.50;99.90;;;3.44;100.00;-19844.09;5014104;28;20207;-68
2022/01/13 04:46:03;;;;;;;21.80;12.50;;;2.50;99.90;;;3.32;100.00;-19840.00;5014683;28;20584;-66
2022/01/13 04:48:31;;;;;;;20.33;13.27;;;2.50;99.90;;;3.44;100.00;-19844.09;5014541;28;20214;-67
2022/01/13 04:50:59;;;;;;;19.53;12.43;;;2.50;99.90;;;3.35;100.00;-19840.84;5014336;28;20289;-66
2022/01/13 04:53:27;;;;;;;20.23;12.13;;;2.50;99.90;;;3.35;100.00;-19840.84;5014463;28;20198;-67
2022/01/13 04:55:58;;;;;;;18.97;12.97;;;2.60;99.90;;;3.40;100.00;-19842.56;5014012;28;20266;-67
2022/01/13 04:58:26;;;;;;;18.87;12.57;;;2.60;99.90;;;3.46;100.00;-19844.63;5014535;28;20189;-68
2022/01/13 05:00:54;;;;;;;20.40;12.20;;;2.50;99.90;;;3.36;100.00;-19841.19;5014235;28;20311;-68
2022/01/13 05:03:24;;;;;;;18.30;12.20;;;2.60;99.90;;;3.51;100.00;-19846.31;5013917;28;20212;-67
2022/01/13 05:05:52;;;;;;;19.87;12.70;;;2.60;99.90;;;3.64;100.00;-19850.78;5014111;28;20967;-67
2022/01/13 05:08:20;;;;;;;19.30;11.80;;;2.70;99.90;;;3.50;100.00;-19846.16;5013618;28;20619;-66
2022/01/13 05:10:48;;;;;;;18.57;12.37;;;2.70;99.90;;;3.63;100.00;-19850.44;5014022;28;20625;-67
2022/01/13 05:13:17;;;;;;;18.23;11.77;;;2.70;99.90;;;3.64;100.00;-19850.78;5013542;28;20718;-67
2022/01/13 05:15:45;;;;;;;20.27;13.23;;;2.80;99.90;;;3.65;100.00;-19851.13;5013678;28;20240;-67
2022/01/13 05:18:21;;;;;;;18.87;11.90;;;2.80;99.90;;;3.44;100.00;-19843.94;5013825;28;20204;-67
2022/01/13 05:20:58;;;;;;;20.47;12.17;;;2.70;99.90;;;3.71;100.00;-19853.16;5013646;28;20298;-66
2022/01/13 05:23:26;;;;;;;21.57;12.03;;;2.80;99.90;;;3.74;100.00;-19854.34;5014186;28;20420;-67
2022/01/13 05:25:54;;;;;;;16.50;11.03;;;2.80;99.90;;;3.79;100.00;-19855.72;5015684;28;20209;-67
2022/01/13 05:28:22;;;;;;;18.97;11.80;;;2.80;99.90;;;3.64;100.00;-19850.94;5013575;28;20794;-67
2022/01/13 05:30:51;;;;;;;16.90;10.20;;;2.80;99.90;;;3.79;100.00;-19855.72;5013676;28;20227;-67
2022/01/13 05:33:19;;;;;;;17.83;11.37;;;2.80;99.90;;;3.77;100.00;-19855.03;5013511;28;20233;-68
2022/01/13 05:35:47;;;;;;;18.33;10.97;;;2.80;99.90;;;3.69;100.00;-19852.47;5013623;28;20227;-66
2022/01/13 05:38:18;;;;;;;18.10;11.10;;;2.80;99.90;;;3.73;100.00;-19853.84;5013435;28;20259;-66
2022/01/13 05:40:47;;;;;;;20.30;12.57;;;2.90;99.90;;;3.54;100.00;-19847.34;5013303;28;20297;-66
2022/01/13 05:43:15;;;;;;;19.87;11.20;;;2.80;99.90;;;3.42;100.00;-19843.25;5013452;28;20227;-65
2022/01/13 05:45:43;;;;;;;18.17;11.87;;;2.70;99.90;;;3.52;100.00;-19846.84;5013388;28;20210;-65
2022/01/13 05:48:11;;;;;;;18.73;11.93;;;2.70;99.90;;;3.60;100.00;-19849.56;5013095;28;20249;-66
2022/01/13 05:50:39;;;;;;;20.13;12.00;;;2.70;99.90;;;3.47;100.00;-19844.97;5013415;28;20638;-66
2022/01/13 05:53:08;;;;;;;20.30;12.00;;;2.70;99.90;;;3.37;100.00;-19841.53;5013123;28;20205;-66
2022/01/13 05:55:38;;;;;;;16.00;10.77;;;2.70;99.90;;;3.35;100.00;-19840.84;5012596;28;20774;-65
2022/01/13 05:58:07;;;;;;;18.23;11.17;;;2.60;99.90;;;3.20;100.00;-19835.72;5013222;28;20306;-65
2022/01/13 06:00:35;;;;;;;20.07;11.97;;;2.60;99.90;;;3.18;100.00;-19835.03;5012996;28;20254;-65
2022/01/13 06:03:04;;;;;;;17.87;11.60;;;2.50;99.90;;;3.06;100.00;-19831.09;5013076;28;20202;-65
2022/01/13 06:05:35;;;;;;;20.07;11.30;;;2.50;99.90;;;3.01;100.00;-19829.41;5013101;28;20207;-66
2022/01/13 06:08:03;;;;;;;19.57;12.53;;;2.50;99.90;;;3.04;100.00;-19830.25;5012564;28;20187;-65
2022/01/13 06:10:32;;;;;;;19.07;11.87;;;2.40;99.90;;;3.07;100.00;-19831.44;5012872;28;20282;-66
2022/01/13 06:13:01;;;;;;;19.77;12.23;;;2.40;99.90;;;3.05;100.00;-19830.78;5012816;28;20207;-66
2022/01/13 06:15:31;;;;;;;19.27;11.47;;;2.40;99.90;;;2.94;100.00;-19827.00;5012778;28;20254;-65
2022/01/13 06:18:00;;;;;;;19.60;12.40;;;2.30;99.90;;;2.79;100.00;-19821.88;5012885;28;20199;-65
2022/01/13 06:20:28;;;;;;;18.40;11.93;;;2.30;99.90;;;2.74;100.00;-19820.00;5011754;28;20219;-65
2022/01/13 06:22:57;;;;;;;21.13;13.13;;;2.20;99.90;;;2.78;100.00;-19821.38;5012185;28;20749;-66
2022/01/13 06:25:25;;;;;;;17.87;12.20;;;2.20;99.90;;;2.90;100.00;-19825.47;5012239;28;20215;-65
2022/01/13 06:27:53;;;;;;;18.73;12.27;;;2.20;99.90;;;2.89;100.00;-19825.13;5012435;28;20697;-65
2022/01/13 06:30:42;;;;;;;20.10;12.10;;;2.20;99.90;;;3.02;100.00;-19829.75;5012809;28;20190;-65
2022/01/13 06:33:10;;;;;;;18.77;11.40;;;2.30;99.90;;;3.17;100.00;-19834.69;5012277;28;20219;-66
2022/01/13 06:35:38;;;;;;;19.10;12.50;;;2.30;99.90;;;3.14;100.00;-19833.69;5012534;28;20741;-64
2022/01/13 06:38:06;;;;;;;18.20;11.13;;;2.40;99.90;;;3.13;100.00;-19833.34;5012579;28;20302;-65
2022/01/13 06:40:35;;;;;;;19.73;12.03;;;2.40;99.90;;;3.05;100.00;-19830.59;5013016;28;20321;-65
2022/01/13 06:43:03;;;;;;;20.30;12.10;;;2.40;99.90;;;3.15;100.00;-19834.00;5013213;28;20253;-65
2022/01/13 06:45:31;;;;;;;20.50;11.80;;;2.30;99.90;;;2.88;100.00;-19824.78;5012978;28;20199;-65
2022/01/13 06:48:01;;;;;;;17.17;11.40;;;2.30;99.90;;;2.85;100.00;-19823.94;5012465;28;20207;-65
2022/01/13 06:50:29;;;;;;;17.83;11.30;;;2.30;99.90;;;2.74;100.00;-19820.16;5012492;28;20225;-65
2022/01/13 06:52:57;;;;;;;19.53;10.97;;;2.20;99.90;;;2.77;100.00;-19821.19;5012679;28;20293;-65
2022/01/13 06:55:26;;;;;;;19.63;12.63;;;2.20;99.90;;;2.87;100.00;-19824.63;5012399;28;20587;-65
2022/01/13 06:57:54;;;;;;;18.80;12.27;;;2.10;99.90;;;2.76;100.00;-19820.69;5012286;28;20297;-66
2022/01/13 07:00:23;;;;;;;17.03;11.07;;;2.20;99.90;;;2.70;100.00;-19818.81;5012412;28;20695;-66
2022/01/13 07:02:54;;;;;;;17.13;11.27;;;2.10;99.90;;;2.81;100.00;-19822.41;5012390;28;20858;-65
2022/01/13 07:05:24;;;;;;;21.80;11.83;;;2.20;99.90;;;2.77;100.00;-19821.19;5012916;28;20190;-65
2022/01/13 07:07:53;;;;;;;17.30;11.23;;;2.20;99.90;;;2.69;100.00;-19818.47;5012416;28;20618;-65
2022/01/13 07:10:21;;;;;;;16.67;11.10;;;2.10;99.90;;;2.75;100.00;-19820.50;5012629;28;20368;-65
2022/01/13 07:12:49;;;;;;;17.97;11.23;;;2.10;99.90;;;2.83;100.00;-19823.25;5012708;28;20301;-65
2022/01/13 07:15:17;;;;;;;18.27;11.90;;;2.20;99.90;;;2.73;100.00;-19819.81;5012691;28;20241;-65
2022/01/13 07:17:47;;;;;;;19.93;11.97;;;2.20;99.90;;;2.82;100.00;-19822.72;5012322;28;20235;-65
2022/01/13 07:20:15;;;;;;;15.30;11.00;;;2.20;99.90;;;2.74;100.00;-19820.00;5012534;28;20289;-66
2022/01/13 07:22:45;;;;;;;18.63;11.50;;;2.10;99.90;;;2.73;100.00;-19819.81;5012607;28;20210;-65
2022/01/13 07:25:13;;;;;;;18.53;10.57;;;2.20;99.90;;;2.87;100.00;-19824.44;5012471;28;20206;-64
2022/01/13 07:27:42;;;;;;;16.57;10.93;;;2.20;99.90;;;2.86;100.00;-19824.28;5012502;28;20213;-64
2022/01/13 07:30:13;;;;;;;17.73;12.00;;;2.20;99.90;;;2.78;100.00;-19821.53;5010970;28;20289;-64
2022/01/13 07:32:41;;;;;;;18.40;11.50;;;2.20;99.90;;;2.90;100.00;-19825.63;5014985;28;20258;-65
2022/01/13 07:35:11;;;;;;;18.67;11.30;;;2.20;99.90;;;2.89;100.00;-19825.31;5015530;28;20622;-66
2022/01/13 07:37:42;;;;;;;18.80;11.87;;;2.20;99.90;;;3.09;100.00;-19832.13;5015724;28;20286;-65
2022/01/13 07:40:15;;;;;;;18.03;10.67;;;2.30;99.90;;;3.04;100.00;-19830.44;5015710;28;20196;-65
2022/01/13 07:42:43;;;;;;;17.23;11.40;;;2.30;99.90;;;2.86;100.00;-19824.09;5015786;28;20187;-66
2022/01/13 07:45:16;;;;;;;20.43;11.97;;;2.30;99.90;;;2.92;100.00;-19826.31;5016219;28;20287;-66
2022/01/13 07:47:44;;;;;;;16.07;11.60;;;2.30;99.90;;;3.15;100.00;-19834.19;5016143;28;20275;-65
2022/01/13 07:50:15;;;;;;;20.73;12.10;;;2.40;99.90;;;3.28;100.00;-19838.47;5015867;28;20298;-65
2022/01/13 07:52:44;;;;;;;16.77;12.27;;;2.40;99.90;;;3.06;100.00;-19830.94;5014172;28;20643;-65
2022/01/13 07:55:13;;;;;;;22.23;12.63;;;2.40;99.90;;;3.48;100.00;-19845.31;5015323;28;20274;-64
2022/01/13 07:57:42;;;;;;;16.97;11.73;;;2.50;99.90;;;3.13;100.00;-19833.34;5015973;28;20270;-66
2022/01/13 08:00:14;;;;;;;17.97;11.83;;;2.50;99.90;;;3.26;100.00;-19837.78;5016116;28;20294;-64
2022/01/13 08:02:42;;;;;;;15.90;11.30;;;2.50;99.90;;;3.13;100.00;-19833.34;5015621;28;20237;-65
2022/01/13 08:05:12;;;;;;;17.87;10.93;;;2.50;99.90;;;3.29;100.00;-19838.81;5012139;28;20290;-62
2022/01/13 08:07:40;;;;;;;18.63;11.27;;;2.50;99.90;;;3.32;100.00;-19840.00;5011508;28;20242;-62
2022/01/13 08:10:10;;;;;;;16.47;11.27;;;2.60;99.90;;;3.32;100.00;-19839.81;5013016;28;20239;-63
2022/01/13 08:12:39;;;;;;;15.83;12.00;;;2.60;99.90;;;3.41;100.00;-19842.91;5012773;28;20285;-63
2022/01/13 08:15:13;;;;;;;16.47;11.93;;;2.70;99.90;;;3.68;100.00;-19852.13;5012998;28;20262;-64
2022/01/13 08:20:27;;;;;;;14.63;10.23;;;2.90;99.90;;;3.87;100.00;-19858.47;5012172;28;20897;-64
2022/01/13 08:22:56;;;;;;;16.60;10.23;;;3.00;99.90;;;3.97;100.00;-19862.06;5012267;28;20355;-59
2022/01/13 08:25:27;;;;;;;15.00;10.90;;;3.00;99.90;;;4.03;100.00;-19864.09;5012404;28;20643;-59
2022/01/13 08:27:56;;;;;;;18.33;10.27;;;3.10;99.90;;;4.03;100.00;-19863.94;5012493;28;20187;-59
2022/01/13 08:30:25;;;;;;;13.57;9.33;;;3.20;99.90;;;4.02;100.00;-19863.75;5012466;28;20256;-60
2022/01/13 08:32:53;;;;;;;16.13;10.70;;;3.20;99.90;;;4.18;100.00;-19869.06;5012337;28;20288;-62
2022/01/13 08:35:21;;;;;;;16.77;10.93;;;3.30;99.90;;;4.44;100.00;-19877.94;4992988;28;20227;-62
2022/01/13 08:37:50;;;;;;;15.53;10.93;;;3.40;99.90;;;4.56;100.00;-19882.06;4992264;28;20202;-63
2022/01/13 08:40:18;;;;;;;15.47;10.60;;;3.60;99.90;;;4.59;100.00;-19883.06;4992429;28;20299;-65
2022/01/13 08:42:46;;;;;;;14.60;9.80;;;3.70;99.90;;;4.63;100.00;-19884.44;4991528;28;20227;-62
2022/01/13 08:45:15;;;;;;;15.50;10.50;;;3.70;99.90;;;4.65;100.00;-19885.13;4992487;28;20619;-60
2022/01/13 08:47:44;;;;;;;13.30;9.83;;;3.70;99.90;;;4.61;100.00;-19883.94;4992457;28;20304;-61
2022/01/13 08:50:13;;;;;;;13.97;10.07;;;3.70;99.90;;;4.64;100.00;-19884.97;4992676;28;20196;-62
2022/01/13 08:52:42;;;;;;;14.73;10.77;;;3.70;99.90;;;4.63;100.00;-19884.44;4992244;28;20235;-61
2022/01/13 08:55:10;;;;;;;13.90;10.23;;;3.80;99.90;;;4.76;100.00;-19889.06;4992082;28;20324;-62
2022/01/13 08:57:38;;;;;;;15.80;9.70;;;3.80;99.90;;;4.71;100.00;-19887.34;4992141;28;20303;-64
2022/01/13 09:00:09;;;;;;;17.73;10.97;;;3.80;99.90;;;4.57;100.00;-19882.56;4991988;28;20254;-65
2022/01/13 09:02:42;;;;;;;14.93;10.00;;;3.80;99.90;;;4.56;100.00;-19882.22;4991811;28;20568;-62
2022/01/13 09:05:14;;;;;;;14.13;10.17;;;3.80;99.90;;;4.73;100.00;-19888.03;4992129;28;20631;-62
2022/01/13 09:07:42;;;;;;;15.73;10.37;;;3.80;99.90;;;4.78;100.00;-19889.56;4991613;28;20481;-61
2022/01/13 09:10:12;;;;;;;12.97;9.80;;;3.90;99.90;;;4.73;100.00;-19888.03;4991531;28;20697;-61
2022/01/13 09:12:41;;;;;;;15.87;9.93;;;3.90;99.90;;;5.07;100.00;-19899.50;4991556;28;20289;-62
2022/01/13 09:15:18;;;;;;;15.10;9.77;;;4.00;99.90;;;5.20;100.00;-19903.75;4991668;28;20210;-64
2022/01/13 09:17:51;;;;;;;14.87;9.07;;;4.10;99.90;;;5.07;100.00;-19899.31;4991493;28;20342;-62
2022/01/13 09:20:20;;;;;;;15.27;9.70;;;4.10;99.90;;;5.38;100.00;-19909.91;4991313;28;20655;-61
2022/01/13 09:22:49;;;;;;;14.90;9.23;;;4.30;99.90;;;5.28;100.00;-19906.66;4990974;28;20789;-56
2022/01/13 09:25:17;;;;;;;12.20;8.77;;;4.30;99.90;;;5.41;100.00;-19910.94;4991442;28;20260;-58
2022/01/13 09:27:45;;;;;;;12.07;9.43;;;4.40;99.90;;;5.43;100.00;-19911.78;4991512;28;20298;-62
2022/01/13 09:30:15;;;;;;;13.37;8.77;;;4.50;99.90;;;5.77;100.00;-19923.25;4990989;28;20214;-64
2022/01/13 09:32:44;;;;;;;13.32;10.02;;;4.50;99.90;;;5.70;100.00;-19920.84;4990421;28;20539;-60
2022/01/13 09:35:14;;;;;;;11.27;8.83;;;4.70;99.90;;;5.74;100.00;-19922.38;5009114;28;20240;-59
2022/01/13 09:37:42;;;;;;;11.77;8.53;;;4.70;99.90;;;5.92;100.00;-19928.38;5010750;28;20274;-59
2022/01/13 09:40:13;;;;;;;15.37;8.70;;;4.80;99.90;;;5.93;100.00;-19928.72;5010203;28;20638;-63
2022/01/13 09:42:44;;;;;;;12.50;8.80;;;4.80;99.90;;;6.01;100.00;-19931.44;5009388;28;20210;-64
2022/01/13 09:45:16;;;;;;;11.37;7.83;;;4.90;99.90;;;5.91;100.00;-19928.03;5009642;28;20195;-62
2022/01/13 09:47:46;;;;;;;9.90;8.63;;;4.90;99.90;;;5.76;100.00;-19922.91;5010650;28;20189;-62
2022/01/13 09:50:20;;;;;;;14.47;8.23;;;4.80;99.90;;;5.86;100.00;-19926.31;5010523;28;20273;-63
2022/01/13 09:52:50;;;;;;;16.30;8.90;;;4.80;99.90;;;5.94;100.00;-19929.06;5010340;28;20274;-62
2022/01/13 09:55:19;;;;;;;13.60;8.47;;;4.80;99.90;;;6.07;100.00;-19933.66;5009786;28;20578;-62
2022/01/13 09:57:50;;;;;;;12.87;7.80;;;4.90;99.90;;;5.85;100.00;-19926.16;5010160;28;20249;-62
2022/01/13 10:00:26;;;;;;;11.57;8.10;;;4.90;99.90;;;5.92;100.00;-19928.53;5010460;28;20187;-61
2022/01/13 10:02:54;;;;;;;11.07;8.80;;;4.90;99.90;;;5.92;100.00;-19928.38;5010058;28;20210;-60
2022/01/13 10:05:25;;;;;;;11.17;7.93;;;4.90;99.90;;;5.99;100.00;-19930.94;5010061;28;20202;-61
2022/01/13 10:07:55;;;;;;;13.70;9.33;;;5.00;99.90;;;6.10;100.00;-19934.53;5009876;28;20805;-59
2022/01/13 10:10:28;;;;;;;12.63;8.57;;;5.10;99.90;;;6.30;100.00;-19941.19;5010318;28;20194;-61
2022/01/13 10:13:04;;;;;;;12.60;8.67;;;5.10;99.90;;;6.10;100.00;-19934.69;5010071;28;20198;-63
2022/01/13 10:18:43;;;;;;;14.03;9.43;;;5.10;99.90;;;6.50;100.00;-19948.19;4997475;28;20227;-57
2022/01/13 10:21:19;;;;;;;11.17;8.37;;;5.20;99.90;;;6.43;100.00;-19945.81;5003319;28;20229;-63
2022/01/13 10:24:09;;;;;;;14.47;10.43;;;5.30;99.90;;;6.62;100.00;-19952.31;5008028;28;20250;-61
2022/01/13 10:26:39;;;;;;;13.50;9.80;;;5.50;99.90;;;6.55;100.00;-19949.91;4989590;28;20211;-62
2022/01/13 10:29:09;;;;;;;14.57;10.10;;;5.40;99.90;;;6.55;100.00;-19949.72;4989396;28;20605;-72
2022/01/13 10:31:50;;;;;;;16.73;11.13;;;5.50;99.90;;;6.50;100.00;-19948.03;4990619;28;20238;-68
2022/01/13 10:34:23;;;;;;;16.27;10.60;;;5.50;99.90;;;6.50;100.00;-19948.19;5006397;28;20251;-69